sensor_id;sensor_type;location;lat;lon;timestamp;temperature;humidity
8988;DHT22;4529;51.360;12.474;2024-01-16T00:01:33;2.80;99.90
8988;DHT22;4529;51.360;12.474;2024-01-16T00:06:42;2.70;99.90
8988;DHT22;4529;51.360;12.474;2024-01-16T00:11:46;2.70;99.90
8988;DHT22;4529;51.360;12.474;2024-01-16T00:16:50;2.70;99.90
8988;DHT22;4529;51.360;12.474;2024-01-16T00:21:53;2.70;99.90
8988;DHT22;4529;51.360;12.474;2024-01-16T00:26:57;2.70;99.90
8988;DHT22;4529;51.360;12.474;2024-01-16T00:32:00;2.60;99.90
8988;DHT22;4529;51.360;12.474;2024-01-16T00:37:05;2.70;99.90
8988;DHT22;4529;51.360;12.474;2024-01-16T00:42:08;2.70;99.90
8988;DHT22;4529;51.360;12.474;2024-01-16T00:47:11;2.70;99.90
8988;DHT22;4529;51.360;12.474;2024-01-16T00:52:15;2.70;99.90
8988;DHT22;4529;51.360;12.474;2024-01-16T00:57:18;2.70;99.90
8988;DHT22;4529;51.360;12.474;2024-01-16T01:02:22;2.70;99.90
8988;DHT22;4529;51.360;12.474;2024-01-16T01:07:25;2.70;99.90
8988;DHT22;4529;51.360;12.474;2024-01-16T01:12:29;2.80;99.90
8988;DHT22;4529;51.360;12.474;2024-01-16T01:17:33;2.80;99.90
8988;DHT22;4529;51.360;12.474;2024-01-16T01:22:36;2.80;99.90
8988;DHT22;4529;51.360;12.474;2024-01-16T01:27:40;2.80;99.90
8988;DHT22;4529;51.360;12.474;2024-01-16T01:32:44;2.80;99.90
8988;DHT22;4529;51.360;12.474;2024-01-16T01:37:47;2.80;99.90
8988;DHT22;4529;51.360;12.474;2024-01-16T01:42:51;2.80;99.90
8988;DHT22;4529;51.360;12.474;2024-01-16T01:47:54;2.80;99.90
8988;DHT22;4529;51.360;12.474;2024-01-16T01:52:58;2.80;99.90
8988;DHT22;4529;51.360;12.474;2024-01-16T01:58:02;2.80;99.90
8988;DHT22;4529;51.360;12.474;2024-01-16T02:03:06;2.80;99.90
8988;DHT22;4529;51.360;12.474;2024-01-16T02:08:09;2.80;99.90
8988;DHT22;4529;51.360;12.474;2024-01-16T02:13:13;2.80;99.90
8988;DHT22;4529;51.360;12.474;2024-01-16T02:18:16;2.90;99.90
8988;DHT22;4529;51.360;12.474;2024-01-16T02:23:28;2.90;99.90
8988;DHT22;4529;51.360;12.474;2024-01-16T02:28:31;2.90;99.90
8988;DHT22;4529;51.360;12.474;2024-01-16T02:33:35;2.90;99.90
8988;DHT22;4529;51.360;12.474;2024-01-16T02:38:38;2.80;99.90
8988;DHT22;4529;51.360;12.474;2024-01-16T02:43:42;2.80;99.90
8988;DHT22;4529;51.360;12.474;2024-01-16T02:48:46;2.80;99.90
8988;DHT22;4529;51.360;12.474;2024-01-16T02:53:50;2.80;99.90
8988;DHT22;4529;51.360;12.474;2024-01-16T02:58:55;2.80;99.90
8988;DHT22;4529;51.360;12.474;2024-01-16T03:03:59;2.80;99.90
8988;DHT22;4529;51.360;12.474;2024-01-16T03:09:03;2.80;99.90
8988;DHT22;4529;51.360;12.474;2024-01-16T03:14:06;2.80;99.90
8988;DHT22;4529;51.360;12.474;2024-01-16T03:19:10;2.80;99.90
8988;DHT22;4529;51.360;12.474;2024-01-16T03:24:13;2.80;99.90
8988;DHT22;4529;51.360;12.474;2024-01-16T03:29:17;2.80;99.90
8988;DHT22;4529;51.360;12.474;2024-01-16T03:34:23;2.70;99.90
8988;DHT22;4529;51.360;12.474;2024-01-16T03:39:26;2.80;99.90
8988;DHT22;4529;51.360;12.474;2024-01-16T03:44:29;2.70;99.90
8988;DHT22;4529;51.360;12.474;2024-01-16T03:49:33;2.70;99.90
8988;DHT22;4529;51.360;12.474;2024-01-16T03:54:37;2.70;99.90
8988;DHT22;4529;51.360;12.474;2024-01-16T03:59:40;2.70;99.90
8988;DHT22;4529;51.360;12.474;2024-01-16T04:04:45;2.60;99.90
8988;DHT22;4529;51.360;12.474;2024-01-16T04:09:50;2.60;99.90
8988;DHT22;4529;51.360;12.474;2024-01-16T04:14:53;2.60;99.90
8988;DHT22;4529;51.360;12.474;2024-01-16T04:19:57;2.60;99.90
8988;DHT22;4529;51.360;12.474;2024-01-16T04:25:01;2.50;99.90
8988;DHT22;4529;51.360;12.474;2024-01-16T04:30:05;2.60;99.90
8988;DHT22;4529;51.360;12.474;2024-01-16T04:35:09;2.50;99.90
8988;DHT22;4529;51.360;12.474;2024-01-16T04:40:13;2.50;99.90
8988;DHT22;4529;51.360;12.474;2024-01-16T04:45:17;2.50;99.90
8988;DHT22;4529;51.360;12.474;2024-01-16T04:50:20;2.50;99.90
8988;DHT22;4529;51.360;12.474;2024-01-16T04:55:24;2.50;99.90
8988;DHT22;4529;51.360;12.474;2024-01-16T05:00:27;2.50;99.90
8988;DHT22;4529;51.360;12.474;2024-01-16T05:05:31;2.50;99.90
8988;DHT22;4529;51.360;12.474;2024-01-16T05:10:35;2.50;99.90
8988;DHT22;4529;51.360;12.474;2024-01-16T05:15:40;2.50;99.90
8988;DHT22;4529;51.360;12.474;2024-01-16T05:20:42;2.50;99.90
8988;DHT22;4529;51.360;12.474;2024-01-16T05:25:46;2.40;99.90
8988;DHT22;4529;51.360;12.474;2024-01-16T05:30:50;2.40;99.90
8988;DHT22;4529;51.360;12.474;2024-01-16T05:35:56;2.40;99.90
8988;DHT22;4529;51.360;12.474;2024-01-16T05:40:58;2.40;99.90
8988;DHT22;4529;51.360;12.474;2024-01-16T05:46:01;2.40;99.90
8988;DHT22;4529;51.360;12.474;2024-01-16T05:51:04;2.40;99.90
8988;DHT22;4529;51.360;12.474;2024-01-16T05:56:08;2.40;99.90
8988;DHT22;4529;51.360;12.474;2024-01-16T06:01:12;2.40;99.90
8988;DHT22;4529;51.360;12.474;2024-01-16T06:06:16;2.40;99.90
8988;DHT22;4529;51.360;12.474;2024-01-16T06:11:29;2.30;99.90
8988;DHT22;4529;51.360;12.474;2024-01-16T06:16:23;2.30;99.90
8988;DHT22;4529;51.360;12.474;2024-01-16T06:21:27;2.30;99.90
8988;DHT22;4529;51.360;12.474;2024-01-16T06:26:31;2.10;99.90
8988;DHT22;4529;51.360;12.474;2024-01-16T06:31:34;2.10;99.90
8988;DHT22;4529;51.360;12.474;2024-01-16T06:36:38;2.10;99.90
8988;DHT22;4529;51.360;12.474;2024-01-16T06:41:42;2.10;99.90
8988;DHT22;4529;51.360;12.474;2024-01-16T06:46:45;2.10;99.90
8988;DHT22;4529;51.360;12.474;2024-01-16T06:51:49;2.10;99.90
8988;DHT22;4529;51.360;12.474;2024-01-16T06:56:52;2.10;99.90
8988;DHT22;4529;51.360;12.474;2024-01-16T07:01:58;2.00;99.90
8988;DHT22;4529;51.360;12.474;2024-01-16T07:07:03;1.90;99.90
8988;DHT22;4529;51.360;12.474;2024-01-16T07:12:06;1.90;99.90
8988;DHT22;4529;51.360;12.474;2024-01-16T07:17:09;1.90;99.90
8988;DHT22;4529;51.360;12.474;2024-01-16T07:22:14;1.80;99.90
8988;DHT22;4529;51.360;12.474;2024-01-16T07:27:18;1.70;99.90
8988;DHT22;4529;51.360;12.474;2024-01-16T07:32:22;1.70;99.90
8988;DHT22;4529;51.360;12.474;2024-01-16T07:37:25;1.70;99.90
8988;DHT22;4529;51.360;12.474;2024-01-16T07:42:29;1.70;99.90
8988;DHT22;4529;51.360;12.474;2024-01-16T07:47:32;1.70;99.90
8988;DHT22;4529;51.360;12.474;2024-01-16T07:52:36;1.70;99.90
8988;DHT22;4529;51.360;12.474;2024-01-16T07:57:40;1.70;99.90
8988;DHT22;4529;51.360;12.474;2024-01-16T08:02:46;1.70;99.90
8988;DHT22;4529;51.360;12.474;2024-01-16T08:07:49;1.70;99.90
8988;DHT22;4529;51.360;12.474;2024-01-16T08:12:53;1.80;99.90
8988;DHT22;4529;51.360;12.474;2024-01-16T08:17:58;1.80;99.90
8988;DHT22;4529;51.360;12.474;2024-01-16T08:23:01;1.70;99.90
8988;DHT22;4529;51.360;12.474;2024-01-16T08:28:05;1.90;99.90
8988;DHT22;4529;51.360;12.474;2024-01-16T08:33:08;1.80;99.90
8988;DHT22;4529;51.360;12.474;2024-01-16T08:38:12;2.00;99.90
8988;DHT22;4529;51.360;12.474;2024-01-16T08:43:16;2.00;99.90
8988;DHT22;4529;51.360;12.474;2024-01-16T08:48:20;2.00;99.90
8988;DHT22;4529;51.360;12.474;2024-01-16T08:53:23;2.10;99.90
8988;DHT22;4529;51.360;12.474;2024-01-16T08:58:27;2.20;99.90
8988;DHT22;4529;51.360;12.474;2024-01-16T09:03:33;2.30;99.90
8988;DHT22;4529;51.360;12.474;2024-01-16T09:08:35;2.30;99.90
8988;DHT22;4529;51.360;12.474;2024-01-16T09:13:38;2.30;99.90
8988;DHT22;4529;51.360;12.474;2024-01-16T09:18:42;2.30;99.90
8988;DHT22;4529;51.360;12.474;2024-01-16T09:23:45;2.30;99.90
8988;DHT22;4529;51.360;12.474;2024-01-16T09:28:49;2.40;99.90
8988;DHT22;4529;51.360;12.474;2024-01-16T09:33:53;2.40;99.90
8988;DHT22;4529;51.360;12.474;2024-01-16T09:38:56;2.50;99.90
8988;DHT22;4529;51.360;12.474;2024-01-16T09:44:00;2.50;99.90
8988;DHT22;4529;51.360;12.474;2024-01-16T09:49:04;2.60;99.90
8988;DHT22;4529;51.360;12.474;2024-01-16T09:54:07;2.60;99.90
8988;DHT22;4529;51.360;12.474;2024-01-16T09:59:12;2.70;99.90
8988;DHT22;4529;51.360;12.474;2024-01-16T10:04:15;2.70;99.90
8988;DHT22;4529;51.360;12.474;2024-01-16T10:09:19;2.70;99.90
8988;DHT22;4529;51.360;12.474;2024-01-16T10:14:23;2.70;99.90
8988;DHT22;4529;51.360;12.474;2024-01-16T10:19:27;2.70;99.90
8988;DHT22;4529;51.360;12.474;2024-01-16T10:24:30;2.80;99.90
8988;DHT22;4529;51.360;12.474;2024-01-16T10:29:34;2.80;99.90
8988;DHT22;4529;51.360;12.474;2024-01-16T10:34:38;2.90;99.90
8988;DHT22;4529;51.360;12.474;2024-01-16T10:39:42;2.90;99.90
8988;DHT22;4529;51.360;12.474;2024-01-16T10:44:54;2.90;99.90
8988;DHT22;4529;51.360;12.474;2024-01-16T10:49:58;2.90;99.90
8988;DHT22;4529;51.360;12.474;2024-01-16T10:55:03;3.00;99.90
8988;DHT22;4529;51.360;12.474;2024-01-16T11:00:06;3.00;99.90
8988;DHT22;4529;51.360;12.474;2024-01-16T11:05:11;3.00;99.90
8988;DHT22;4529;51.360;12.474;2024-01-16T11:10:14;3.00;99.90
8988;DHT22;4529;51.360;12.474;2024-01-16T11:15:17;3.00;99.90
8988;DHT22;4529;51.360;12.474;2024-01-16T11:20:21;3.00;99.90
8988;DHT22;4529;51.360;12.474;2024-01-16T11:25:32;3.10;99.90
8988;DHT22;4529;51.360;12.474;2024-01-16T11:30:35;3.10;99.90
8988;DHT22;4529;51.360;12.474;2024-01-16T11:35:39;3.10;99.90
8988;DHT22;4529;51.360;12.474;2024-01-16T11:40:43;3.10;99.90
8988;DHT22;4529;51.360;12.474;2024-01-16T11:45:49;3.10;99.90
8988;DHT22;4529;51.360;12.474;2024-01-16T11:50:53;3.10;99.90
8988;DHT22;4529;51.360;12.474;2024-01-16T11:56:13;3.10;99.90
8988;DHT22;4529;51.360;12.474;2024-01-16T12:01:17;3.10;99.90
8988;DHT22;4529;51.360;12.474;2024-01-16T12:06:20;3.10;99.90
8988;DHT22;4529;51.360;12.474;2024-01-16T12:11:24;3.10;99.90
8988;DHT22;4529;51.360;12.474;2024-01-16T12:16:28;3.20;99.90
8988;DHT22;4529;51.360;12.474;2024-01-16T12:21:32;3.10;99.90
8988;DHT22;4529;51.360;12.474;2024-01-16T12:26:35;3.10;99.90
8988;DHT22;4529;51.360;12.474;2024-01-16T12:31:38;3.10;99.90
8988;DHT22;4529;51.360;12.474;2024-01-16T12:36:42;3.10;99.90
8988;DHT22;4529;51.360;12.474;2024-01-16T12:41:45;3.20;99.90
8988;DHT22;4529;51.360;12.474;2024-01-16T12:46:55;3.30;99.90
8988;DHT22;4529;51.360;12.474;2024-01-16T12:52:18;3.30;99.90
8988;DHT22;4529;51.360;12.474;2024-01-16T12:57:21;3.20;99.90
8988;DHT22;4529;51.360;12.474;2024-01-16T13:02:25;3.30;99.90
8988;DHT22;4529;51.360;12.474;2024-01-16T13:07:28;3.30;99.90
8988;DHT22;4529;51.360;12.474;2024-01-16T13:12:32;3.40;99.90
8988;DHT22;4529;51.360;12.474;2024-01-16T13:17:36;3.40;99.90
8988;DHT22;4529;51.360;12.474;2024-01-16T13:22:40;3.40;99.90
8988;DHT22;4529;51.360;12.474;2024-01-16T13:27:43;3.40;99.90
8988;DHT22;4529;51.360;12.474;2024-01-16T13:32:47;3.50;99.90
8988;DHT22;4529;51.360;12.474;2024-01-16T13:37:50;3.50;99.90
8988;DHT22;4529;51.360;12.474;2024-01-16T13:42:54;3.50;99.90
8988;DHT22;4529;51.360;12.474;2024-01-16T13:47:57;3.50;99.90
8988;DHT22;4529;51.360;12.474;2024-01-16T13:53:01;3.40;99.90
8988;DHT22;4529;51.360;12.474;2024-01-16T13:58:05;3.40;99.90
8988;DHT22;4529;51.360;12.474;2024-01-16T14:03:09;3.40;99.90
8988;DHT22;4529;51.360;12.474;2024-01-16T14:08:12;3.40;99.90
8988;DHT22;4529;51.360;12.474;2024-01-16T14:13:16;3.40;99.90
8988;DHT22;4529;51.360;12.474;2024-01-16T14:18:20;3.40;99.90
8988;DHT22;4529;51.360;12.474;2024-01-16T14:23:24;3.40;99.90
8988;DHT22;4529;51.360;12.474;2024-01-16T14:28:28;3.40;99.90
8988;DHT22;4529;51.360;12.474;2024-01-16T14:33:32;3.40;99.90
8988;DHT22;4529;51.360;12.474;2024-01-16T14:38:41;3.40;99.90
8988;DHT22;4529;51.360;12.474;2024-01-16T14:43:44;3.40;99.90
8988;DHT22;4529;51.360;12.474;2024-01-16T14:48:48;3.30;99.90
8988;DHT22;4529;51.360;12.474;2024-01-16T14:53:53;3.30;99.90
8988;DHT22;4529;51.360;12.474;2024-01-16T14:58:57;3.30;99.90
8988;DHT22;4529;51.360;12.474;2024-01-16T15:04:01;3.30;99.90
8988;DHT22;4529;51.360;12.474;2024-01-16T15:09:07;3.30;99.90
8988;DHT22;4529;51.360;12.474;2024-01-16T15:14:12;3.20;99.90
8988;DHT22;4529;51.360;12.474;2024-01-16T15:19:16;3.10;99.90
8988;DHT22;4529;51.360;12.474;2024-01-16T15:24:20;3.10;99.90
8988;DHT22;4529;51.360;12.474;2024-01-16T15:29:24;3.10;99.90
8988;DHT22;4529;51.360;12.474;2024-01-16T15:34:27;3.10;99.90
8988;DHT22;4529;51.360;12.474;2024-01-16T15:39:31;3.00;99.90
8988;DHT22;4529;51.360;12.474;2024-01-16T15:44:34;3.00;99.90
8988;DHT22;4529;51.360;12.474;2024-01-16T15:49:38;3.00;99.90
8988;DHT22;4529;51.360;12.474;2024-01-16T15:54:43;3.00;99.90
8988;DHT22;4529;51.360;12.474;2024-01-16T15:59:47;3.00;99.90
8988;DHT22;4529;51.360;12.474;2024-01-16T16:04:50;3.00;99.90
8988;DHT22;4529;51.360;12.474;2024-01-16T16:09:53;3.00;99.90
8988;DHT22;4529;51.360;12.474;2024-01-16T16:14:57;3.00;99.90
8988;DHT22;4529;51.360;12.474;2024-01-16T16:20:01;3.00;99.90
8988;DHT22;4529;51.360;12.474;2024-01-16T16:25:05;3.00;99.90
8988;DHT22;4529;51.360;12.474;2024-01-16T16:30:09;3.00;99.90
8988;DHT22;4529;51.360;12.474;2024-01-16T16:35:12;3.10;99.90
8988;DHT22;4529;51.360;12.474;2024-01-16T16:40:16;3.00;99.90
8988;DHT22;4529;51.360;12.474;2024-01-16T16:45:19;3.00;99.90
8988;DHT22;4529;51.360;12.474;2024-01-16T16:50:23;3.10;99.90
8988;DHT22;4529;51.360;12.474;2024-01-16T16:55:27;3.00;99.90
8988;DHT22;4529;51.360;12.474;2024-01-16T17:00:31;3.00;99.90
8988;DHT22;4529;51.360;12.474;2024-01-16T17:05:34;3.00;99.90
8988;DHT22;4529;51.360;12.474;2024-01-16T17:10:38;3.00;99.90
8988;DHT22;4529;51.360;12.474;2024-01-16T17:15:42;3.00;99.90
8988;DHT22;4529;51.360;12.474;2024-01-16T17:20:46;2.90;99.90
8988;DHT22;4529;51.360;12.474;2024-01-16T17:25:49;3.00;99.90
8988;DHT22;4529;51.360;12.474;2024-01-16T17:30:53;2.90;99.90
8988;DHT22;4529;51.360;12.474;2024-01-16T17:35:57;2.90;99.90
8988;DHT22;4529;51.360;12.474;2024-01-16T17:41:00;2.90;99.90
8988;DHT22;4529;51.360;12.474;2024-01-16T17:46:07;2.90;99.90
8988;DHT22;4529;51.360;12.474;2024-01-16T17:51:10;2.90;99.90
8988;DHT22;4529;51.360;12.474;2024-01-16T17:56:15;2.80;99.90
8988;DHT22;4529;51.360;12.474;2024-01-16T18:01:19;2.80;99.90
8988;DHT22;4529;51.360;12.474;2024-01-16T18:06:22;2.70;99.90
8988;DHT22;4529;51.360;12.474;2024-01-16T18:11:26;2.70;99.90
8988;DHT22;4529;51.360;12.474;2024-01-16T18:16:29;2.60;99.90
8988;DHT22;4529;51.360;12.474;2024-01-16T18:21:33;2.50;99.90
8988;DHT22;4529;51.360;12.474;2024-01-16T18:26:37;2.50;99.90
8988;DHT22;4529;51.360;12.474;2024-01-16T18:31:42;2.40;99.90
8988;DHT22;4529;51.360;12.474;2024-01-16T18:36:49;2.30;99.90
8988;DHT22;4529;51.360;12.474;2024-01-16T18:41:52;2.30;99.90
8988;DHT22;4529;51.360;12.474;2024-01-16T18:46:56;2.10;99.90
8988;DHT22;4529;51.360;12.474;2024-01-16T18:51:59;2.10;99.90
8988;DHT22;4529;51.360;12.474;2024-01-16T18:57:03;2.00;99.90
8988;DHT22;4529;51.360;12.474;2024-01-16T19:02:06;1.90;99.90
8988;DHT22;4529;51.360;12.474;2024-01-16T19:07:10;1.90;99.90
8988;DHT22;4529;51.360;12.474;2024-01-16T19:12:14;1.90;99.90
8988;DHT22;4529;51.360;12.474;2024-01-16T19:17:19;1.80;99.90
8988;DHT22;4529;51.360;12.474;2024-01-16T19:22:22;1.70;99.90
8988;DHT22;4529;51.360;12.474;2024-01-16T19:27:25;1.70;99.90
8988;DHT22;4529;51.360;12.474;2024-01-16T19:32:29;1.60;99.90
8988;DHT22;4529;51.360;12.474;2024-01-16T19:37:42;1.40;99.90
8988;DHT22;4529;51.360;12.474;2024-01-16T19:42:45;1.40;99.90
8988;DHT22;4529;51.360;12.474;2024-01-16T19:47:50;1.30;99.90
8988;DHT22;4529;51.360;12.474;2024-01-16T19:52:53;1.30;99.90
8988;DHT22;4529;51.360;12.474;2024-01-16T19:58:00;1.30;99.90
8988;DHT22;4529;51.360;12.474;2024-01-16T20:03:03;1.30;99.90
8988;DHT22;4529;51.360;12.474;2024-01-16T20:08:07;1.10;99.90
8988;DHT22;4529;51.360;12.474;2024-01-16T20:13:11;1.10;99.90
8988;DHT22;4529;51.360;12.474;2024-01-16T20:18:15;1.00;99.90
8988;DHT22;4529;51.360;12.474;2024-01-16T20:23:19;1.00;99.90
8988;DHT22;4529;51.360;12.474;2024-01-16T20:28:22;0.90;99.90
8988;DHT22;4529;51.360;12.474;2024-01-16T20:33:26;0.90;99.90
8988;DHT22;4529;51.360;12.474;2024-01-16T20:38:30;0.90;99.90
8988;DHT22;4529;51.360;12.474;2024-01-16T20:43:34;0.90;99.90
8988;DHT22;4529;51.360;12.474;2024-01-16T20:48:38;0.80;99.90
8988;DHT22;4529;51.360;12.474;2024-01-16T20:53:41;0.80;99.90
8988;DHT22;4529;51.360;12.474;2024-01-16T20:58:45;0.80;99.90
8988;DHT22;4529;51.360;12.474;2024-01-16T21:03:48;0.80;99.90
8988;DHT22;4529;51.360;12.474;2024-01-16T21:08:52;0.80;99.90
8988;DHT22;4529;51.360;12.474;2024-01-16T21:13:57;0.70;99.90
8988;DHT22;4529;51.360;12.474;2024-01-16T21:19:01;0.80;99.90
8988;DHT22;4529;51.360;12.474;2024-01-16T21:24:05;0.70;99.90
8988;DHT22;4529;51.360;12.474;2024-01-16T21:29:17;0.70;99.90
8988;DHT22;4529;51.360;12.474;2024-01-16T21:34:21;0.70;99.90
8988;DHT22;4529;51.360;12.474;2024-01-16T21:39:24;0.70;99.90
8988;DHT22;4529;51.360;12.474;2024-01-16T21:44:28;0.60;99.90
8988;DHT22;4529;51.360;12.474;2024-01-16T21:49:32;0.60;99.90
8988;DHT22;4529;51.360;12.474;2024-01-16T21:54:36;0.60;99.90
8988;DHT22;4529;51.360;12.474;2024-01-16T21:59:40;0.60;99.90
8988;DHT22;4529;51.360;12.474;2024-01-16T22:04:44;0.50;99.90
8988;DHT22;4529;51.360;12.474;2024-01-16T22:09:48;0.50;99.90
8988;DHT22;4529;51.360;12.474;2024-01-16T22:14:52;0.40;99.90
8988;DHT22;4529;51.360;12.474;2024-01-16T22:19:56;0.20;99.90
8988;DHT22;4529;51.360;12.474;2024-01-16T22:25:00;0.20;99.90
8988;DHT22;4529;51.360;12.474;2024-01-16T22:30:05;0.00;99.90
8988;DHT22;4529;51.360;12.474;2024-01-16T22:35:08;0.00;99.90
8988;DHT22;4529;51.360;12.474;2024-01-16T22:40:12;0.00;99.90
8988;DHT22;4529;51.360;12.474;2024-01-16T22:45:16;0.00;99.90
8988;DHT22;4529;51.360;12.474;2024-01-16T22:50:20;-0.10;99.90
8988;DHT22;4529;51.360;12.474;2024-01-16T22:55:24;0.10;99.90
8988;DHT22;4529;51.360;12.474;2024-01-16T23:00:28;0.10;99.90
8988;DHT22;4529;51.360;12.474;2024-01-16T23:05:31;0.10;99.90
8988;DHT22;4529;51.360;12.474;2024-01-16T23:10:35;0.10;99.90
8988;DHT22;4529;51.360;12.474;2024-01-16T23:15:38;0.20;99.90
8988;DHT22;4529;51.360;12.474;2024-01-16T23:20:42;0.30;99.90
8988;DHT22;4529;51.360;12.474;2024-01-16T23:25:55;0.30;99.90
8988;DHT22;4529;51.360;12.474;2024-01-16T23:30:59;0.20;99.90
8988;DHT22;4529;51.360;12.474;2024-01-16T23:36:02;0.30;99.90
8988;DHT22;4529;51.360;12.474;2024-01-16T23:41:09;0.20;99.90
8988;DHT22;4529;51.360;12.474;2024-01-16T23:46:13;0.30;99.90
8988;DHT22;4529;51.360;12.474;2024-01-16T23:51:16;0.30;99.90
8988;DHT22;4529;51.360;12.474;2024-01-16T23:56:29;0.30;99.90
